Time;durP1;ratioP1;P1;durP2;ratioP2;P2;SDS_P1;SDS_P2;PMS_P1;PMS_P2;Temp;Humidity;BMP_temperature;BMP_pressure;BME280_temperature;BME280_humidity;BME280_pressure;Samples;Min_cycle;Max_cycle;Signal;HPM_P1;HPM_P2
2021/05/20 00:01:49;;;;;;;0.13;0.13;;;7.90;99.90;;;;;;5033561;28;20037;-72
2021/05/20 00:04:14;;;;;;;0.20;0.20;;;8.00;99.90;;;;;;5033359;28;20491;-72
2021/05/20 00:06:40;;;;;;;0.20;0.20;;;8.00;99.90;;;;;;5033354;28;20021;-72
2021/05/20 00:09:07;;;;;;;0.30;0.30;;;7.90;99.90;;;;;;5033474;28;20362;-72
2021/05/20 00:11:33;;;;;;;0.40;0.40;;;7.90;99.90;;;;;;5033140;28;20110;-72
2021/05/20 00:13:59;;;;;;;0.68;0.68;;;7.90;99.90;;;;;;5033333;28;20049;-72
2021/05/20 00:16:25;;;;;;;0.20;0.20;;;7.90;99.90;;;;;;5033217;28;20032;-72
2021/05/20 00:18:50;;;;;;;0.20;0.20;;;7.80;99.90;;;;;;5033155;28;20047;-73
2021/05/20 00:21:16;;;;;;;0.85;0.57;;;7.80;99.90;;;;;;5033136;28;20473;-73
2021/05/20 00:23:42;;;;;;;0.13;0.13;;;7.70;99.90;;;;;;5031875;28;20116;-73
2021/05/20 00:26:12;;;;;;;0.30;0.30;;;7.80;99.90;;;;;;5033294;28;20418;-73
2021/05/20 00:28:41;;;;;;;0.40;0.40;;;7.70;99.90;;;;;;5032987;28;20021;-73
2021/05/20 00:31:07;;;;;;;0.20;0.20;;;7.70;99.90;;;;;;5032830;28;20025;-73
2021/05/20 00:33:33;;;;;;;0.30;0.28;;;7.70;99.90;;;;;;5032849;28;20097;-73
2021/05/20 00:35:59;;;;;;;0.25;0.25;;;7.70;99.90;;;;;;5032827;28;20030;-73
2021/05/20 00:38:25;;;;;;;0.20;0.20;;;7.60;99.90;;;;;;5032848;28;20029;-73
2021/05/20 00:40:56;;;;;;;0.40;0.40;;;7.70;99.90;;;;;;5031469;28;20492;-73
2021/05/20 00:43:22;;;;;;;0.20;0.20;;;7.50;99.90;;;;;;5031359;28;20031;-73
2021/05/20 00:45:48;;;;;;;0.17;0.17;;;7.50;99.90;;;;;;5031285;28;20113;-72
2021/05/20 00:48:13;;;;;;;0.20;0.20;;;7.70;99.90;;;;;;5031384;28;20033;-72
2021/05/20 00:50:39;;;;;;;0.20;0.20;;;7.70;99.90;;;;;;5032487;28;20036;-73
2021/05/20 00:53:05;;;;;;;0.20;0.20;;;7.80;99.90;;;;;;5031985;28;20018;-73
2021/05/20 00:55:34;;;;;;;0.35;0.35;;;7.80;99.90;;;;;;5031135;28;20025;-73
2021/05/20 00:58:01;;;;;;;0.20;0.20;;;7.60;99.90;;;;;;5032366;28;20037;-73
2021/05/20 01:00:27;;;;;;;0.20;0.20;;;7.60;99.90;;;;;;5032391;28;20105;-73
2021/05/20 01:02:53;;;;;;;1.20;0.50;;;7.70;99.90;;;;;;5031263;28;20033;-73
2021/05/20 01:05:19;;;;;;;0.20;0.20;;;7.60;99.90;;;;;;5032370;28;20075;-73
2021/05/20 01:07:45;;;;;;;0.40;0.40;;;7.50;99.90;;;;;;5032195;28;20516;-72
2021/05/20 01:10:12;;;;;;;0.20;0.20;;;7.50;99.90;;;;;;5030882;28;20032;-72
2021/05/20 01:12:38;;;;;;;0.28;0.28;;;7.50;99.90;;;;;;5032260;28;20040;-72
2021/05/20 01:15:16;;;;;;;0.50;0.50;;;7.50;99.90;;;;;;5032238;28;20048;-72
2021/05/20 01:17:46;;;;;;;0.52;0.52;;;7.50;99.90;;;;;;5032559;28;20029;-72
2021/05/20 01:20:17;;;;;;;0.98;0.88;;;7.60;99.90;;;;;;5032003;28;20037;-73
2021/05/20 01:22:43;;;;;;;0.50;0.50;;;7.60;99.90;;;;;;5032163;28;20435;-73
2021/05/20 01:25:09;;;;;;;0.20;0.20;;;7.50;99.90;;;;;;5032414;28;20029;-72
2021/05/20 01:27:35;;;;;;;0.25;0.25;;;7.40;99.90;;;;;;5031921;28;20040;-72
2021/05/20 01:30:00;;;;;;;0.20;0.20;;;7.50;99.90;;;;;;5031931;28;20390;-72
2021/05/20 01:32:26;;;;;;;0.20;0.20;;;7.60;99.90;;;;;;5031973;28;20071;-72
2021/05/20 01:34:56;;;;;;;0.30;0.30;;;7.60;99.90;;;;;;5031912;28;20030;-73
2021/05/20 01:37:22;;;;;;;0.20;0.20;;;7.60;99.90;;;;;;5031857;28;20014;-73
2021/05/20 01:39:49;;;;;;;0.65;0.65;;;7.70;99.90;;;;;;5031794;28;20029;-73
2021/05/20 01:42:15;;;;;;;0.20;0.20;;;7.70;99.90;;;;;;5031925;28;20362;-73
2021/05/20 01:44:41;;;;;;;0.20;0.20;;;7.60;99.90;;;;;;5031589;28;20038;-73
2021/05/20 01:47:06;;;;;;;0.20;0.20;;;7.60;99.90;;;;;;5031783;28;20030;-73
2021/05/20 01:49:32;;;;;;;0.20;0.20;;;7.60;99.90;;;;;;5031796;28;20032;-73
2021/05/20 01:51:58;;;;;;;0.20;0.20;;;7.70;99.90;;;;;;5030566;28;20029;-72
2021/05/20 01:54:23;;;;;;;0.20;0.20;;;7.70;99.90;;;;;;5031865;28;20026;-72
2021/05/20 01:56:49;;;;;;;0.20;0.20;;;7.70;99.90;;;;;;5031762;28;20037;-72
2021/05/20 01:59:15;;;;;;;0.20;0.20;;;7.70;99.90;;;;;;5030405;28;20025;-72
2021/05/20 02:01:41;;;;;;;0.30;0.30;;;7.70;99.90;;;;;;5030363;28;20021;-72
2021/05/20 02:04:07;;;;;;;0.20;0.20;;;7.70;99.90;;;;;;5031265;28;20030;-73
2021/05/20 02:06:33;;;;;;;0.30;0.30;;;7.80;99.90;;;;;;5035606;28;20029;-73
2021/05/20 02:08:58;;;;;;;0.30;0.30;;;7.60;99.90;;;;;;5034469;28;20060;-73
2021/05/20 02:11:24;;;;;;;0.30;0.30;;;7.50;99.90;;;;;;5035482;28;20150;-73
2021/05/20 02:13:50;;;;;;;0.20;0.20;;;7.40;99.90;;;;;;5035486;28;20021;-73
2021/05/20 02:16:16;;;;;;;0.40;0.40;;;7.40;99.90;;;;;;5034123;28;20064;-73
2021/05/20 02:18:42;;;;;;;0.30;0.30;;;7.40;99.90;;;;;;5035472;28;20144;-72
2021/05/20 02:21:08;;;;;;;0.20;0.20;;;7.40;99.90;;;;;;5034086;28;20556;-73
2021/05/20 02:23:34;;;;;;;0.20;0.20;;;7.30;99.90;;;;;;5035406;28;20100;-73
2021/05/20 02:26:00;;;;;;;0.65;0.65;;;7.30;99.90;;;;;;5035318;28;20489;-72
2021/05/20 02:28:26;;;;;;;0.40;0.40;;;7.30;99.90;;;;;;5035783;28;20048;-72
2021/05/20 02:30:52;;;;;;;0.17;0.17;;;7.30;99.90;;;;;;5035097;28;20388;-72
2021/05/20 02:33:18;;;;;;;0.52;0.52;;;7.30;99.90;;;;;;5034065;28;20022;-73
2021/05/20 02:35:44;;;;;;;0.98;0.43;;;7.40;99.90;;;;;;5035060;28;20057;-73
2021/05/20 02:38:09;;;;;;;3.63;0.50;;;7.50;99.90;;;;;;5033854;28;20053;-73
2021/05/20 02:40:36;;;;;;;0.22;0.22;;;7.60;99.90;;;;;;5035034;28;20025;-73
2021/05/20 02:43:02;;;;;;;1.38;0.60;;;7.50;99.90;;;;;;5035207;28;20056;-72
2021/05/20 02:45:29;;;;;;;0.20;0.20;;;7.50;99.90;;;;;;5034982;28;20022;-72
2021/05/20 02:47:55;;;;;;;0.28;0.28;;;7.40;99.90;;;;;;5033674;28;20021;-72
2021/05/20 02:50:25;;;;;;;2.95;1.10;;;7.30;99.90;;;;;;5034752;28;20052;-73
2021/05/20 02:52:51;;;;;;;0.45;0.40;;;7.30;99.90;;;;;;5033938;28;20030;-72
2021/05/20 02:55:19;;;;;;;0.40;0.40;;;7.30;99.90;;;;;;5034951;28;20044;-72
2021/05/20 02:57:48;;;;;;;0.55;0.50;;;7.30;99.90;;;;;;5034574;28;20033;-72
2021/05/20 03:00:15;;;;;;;0.20;0.20;;;7.30;99.90;;;;;;5034687;28;20029;-73
2021/05/20 03:02:41;;;;;;;0.35;0.35;;;7.30;99.90;;;;;;5034687;28;20030;-73
2021/05/20 03:05:08;;;;;;;0.30;0.30;;;7.40;99.90;;;;;;5034590;28;20499;-73
2021/05/20 03:07:35;;;;;;;0.20;0.20;;;7.30;99.90;;;;;;5034301;28;20029;-72
2021/05/20 03:10:05;;;;;;;0.20;0.20;;;7.30;99.90;;;;;;5033186;28;20025;-73
2021/05/20 03:12:31;;;;;;;0.20;0.20;;;7.20;99.90;;;;;;5034550;28;20029;-72
2021/05/20 03:14:57;;;;;;;0.45;0.45;;;7.20;99.90;;;;;;5034216;28;20033;-72
2021/05/20 03:17:23;;;;;;;0.45;0.45;;;7.20;99.90;;;;;;5034313;28;20576;-72
2021/05/20 03:19:49;;;;;;;0.82;0.60;;;7.30;99.90;;;;;;5033003;28;20049;-72
2021/05/20 03:22:15;;;;;;;0.10;0.10;;;7.40;99.90;;;;;;5034238;28;20029;-72
2021/05/20 03:24:41;;;;;;;0.20;0.20;;;7.40;99.90;;;;;;5033009;28;20037;-72
2021/05/20 03:27:07;;;;;;;2.35;1.95;;;7.40;99.90;;;;;;5034151;28;20052;-72
2021/05/20 03:29:32;;;;;;;0.20;0.20;;;7.40;99.90;;;;;;5032806;28;20057;-72
2021/05/20 03:31:58;;;;;;;0.10;0.10;;;7.40;99.90;;;;;;5032750;28;20026;-73
2021/05/20 03:34:24;;;;;;;0.30;0.30;;;7.30;99.90;;;;;;5016322;28;20033;-72
2021/05/20 03:36:49;;;;;;;0.55;0.50;;;7.20;99.90;;;;;;5033762;28;20500;-72
2021/05/20 03:39:15;;;;;;;0.20;0.20;;;7.30;99.90;;;;;;5033926;28;20076;-72
2021/05/20 03:41:41;;;;;;;0.75;0.75;;;7.30;99.90;;;;;;5033928;28;20033;-72
2021/05/20 03:44:07;;;;;;;0.20;0.20;;;7.30;99.90;;;;;;5033742;28;20384;-72
2021/05/20 03:46:33;;;;;;;0.30;0.30;;;7.40;99.90;;;;;;5033764;28;20025;-72
2021/05/20 03:48:58;;;;;;;0.65;0.65;;;7.50;99.90;;;;;;5033739;28;20087;-72
2021/05/20 03:51:24;;;;;;;0.20;0.20;;;7.40;99.90;;;;;;5032443;28;20064;-72
2021/05/20 03:53:50;;;;;;;0.20;0.20;;;7.50;99.90;;;;;;5032485;28;20033;-72
2021/05/20 03:56:16;;;;;;;1.58;1.48;;;7.60;99.90;;;;;;5033424;28;20025;-72
2021/05/20 03:58:41;;;;;;;0.55;0.55;;;7.50;99.90;;;;;;5033723;28;20029;-73
2021/05/20 04:01:07;;;;;;;0.20;0.20;;;7.50;99.90;;;;;;5032222;28;20028;-73
2021/05/20 04:03:33;;;;;;;0.20;0.20;;;7.60;99.90;;;;;;5033511;28;20392;-73
2021/05/20 04:06:01;;;;;;;0.25;0.25;;;7.60;99.90;;;;;;5033385;28;20029;-72
2021/05/20 04:08:27;;;;;;;0.43;0.43;;;7.70;99.90;;;;;;5033378;28;20501;-72
2021/05/20 04:10:54;;;;;;;0.40;0.40;;;7.70;99.90;;;;;;5033290;28;20026;-72
2021/05/20 04:13:37;;;;;;;0.65;0.40;;;7.70;99.90;;;;;;5033326;28;20025;-72
2021/05/20 04:16:04;;;;;;;0.20;0.20;;;7.70;99.90;;;;;;5033064;28;20029;-72
2021/05/20 04:18:30;;;;;;;0.20;0.20;;;7.70;99.90;;;;;;5033297;28;20033;-72
2021/05/20 04:20:57;;;;;;;0.20;0.20;;;7.80;99.90;;;;;;5031827;28;20477;-72
2021/05/20 04:23:24;;;;;;;0.30;0.30;;;7.70;99.90;;;;;;5033158;28;20025;-72
2021/05/20 04:25:51;;;;;;;1.85;0.82;;;7.60;99.90;;;;;;5032896;28;20036;-72
2021/05/20 04:28:17;;;;;;;3.70;0.45;;;7.50;99.90;;;;;;5032196;28;20040;-73
2021/05/20 04:30:44;;;;;;;0.25;0.25;;;7.50;99.90;;;;;;5031589;28;20029;-73
2021/05/20 04:33:10;;;;;;;0.40;0.40;;;7.50;99.90;;;;;;5032996;28;20017;-73
2021/05/20 04:35:36;;;;;;;0.43;0.43;;;7.50;99.90;;;;;;5032757;28;20021;-73
2021/05/20 04:38:04;;;;;;;0.28;0.28;;;7.60;99.90;;;;;;5031502;28;20477;-73
2021/05/20 04:40:31;;;;;;;0.30;0.30;;;7.60;99.90;;;;;;5033202;28;20026;-73
2021/05/20 04:42:57;;;;;;;0.20;0.20;;;7.70;99.90;;;;;;5032485;28;20052;-73
2021/05/20 04:45:22;;;;;;;0.20;0.20;;;7.60;99.90;;;;;;5032749;28;20033;-73
2021/05/20 04:47:49;;;;;;;0.20;0.20;;;7.80;99.90;;;;;;5032575;28;20030;-73
2021/05/20 04:50:16;;;;;;;0.10;0.10;;;7.80;99.90;;;;;;5031175;28;20033;-72
2021/05/20 04:52:43;;;;;;;0.20;0.20;;;7.80;99.90;;;;;;5014868;28;20323;-73
2021/05/20 04:55:09;;;;;;;0.55;0.40;;;7.80;99.90;;;;;;5032477;28;20473;-73
2021/05/20 04:57:35;;;;;;;0.20;0.20;;;7.80;99.90;;;;;;5032365;28;20393;-73
2021/05/20 05:00:03;;;;;;;0.20;0.20;;;7.80;99.90;;;;;;5032421;28;20021;-73
2021/05/20 05:02:28;;;;;;;0.30;0.30;;;7.90;99.90;;;;;;5032364;28;20022;-72
2021/05/20 05:04:55;;;;;;;0.20;0.20;;;7.90;99.90;;;;;;5032602;28;20132;-72
2021/05/20 05:07:21;;;;;;;0.15;0.15;;;8.00;99.90;;;;;;5032280;28;20685;-73
2021/05/20 05:09:47;;;;;;;0.20;0.20;;;7.90;99.90;;;;;;5033524;28;20026;-73
2021/05/20 05:12:12;;;;;;;0.30;0.30;;;8.00;99.90;;;;;;5036545;28;20449;-73
2021/05/20 05:14:38;;;;;;;0.52;0.30;;;8.20;99.90;;;;;;5039657;28;20461;-72
2021/05/20 05:17:04;;;;;;;0.20;0.20;;;8.20;99.90;;;;;;5037499;28;20068;-72
2021/05/20 05:19:29;;;;;;;0.20;0.20;;;8.30;99.90;;;;;;5039324;28;20048;-73
2021/05/20 05:21:59;;;;;;;0.20;0.20;;;8.30;99.90;;;;;;5036683;28;20025;-72
2021/05/20 05:24:25;;;;;;;0.73;0.60;;;8.30;99.90;;;;;;5039477;28;20481;-72
2021/05/20 05:26:51;;;;;;;0.35;0.35;;;8.30;99.90;;;;;;5041252;28;20128;-72
2021/05/20 05:29:17;;;;;;;0.20;0.20;;;8.20;99.90;;;;;;5036549;28;20029;-73
2021/05/20 05:31:42;;;;;;;0.40;0.40;;;8.40;99.90;;;;;;5041670;28;20400;-72
2021/05/20 05:34:08;;;;;;;0.20;0.20;;;8.50;99.90;;;;;;5039527;28;20017;-73
2021/05/20 05:36:34;;;;;;;0.20;0.20;;;8.70;99.90;;;;;;5031349;28;20474;-73
2021/05/20 05:39:00;;;;;;;0.30;0.30;;;8.80;99.90;;;;;;5040638;28;20036;-73
2021/05/20 05:41:25;;;;;;;0.50;0.50;;;8.90;99.90;;;;;;5038352;28;20476;-73
2021/05/20 05:43:51;;;;;;;0.10;0.10;;;8.50;99.90;;;;;;5033807;28;20044;-72
2021/05/20 05:46:17;;;;;;;0.30;0.30;;;8.40;99.90;;;;;;5035072;28;20032;-72
2021/05/20 05:48:47;;;;;;;0.30;0.30;;;8.50;99.90;;;;;;5045830;28;20028;-72
2021/05/20 05:51:14;;;;;;;0.20;0.20;;;8.40;99.90;;;;;;5036410;28;20104;-72
2021/05/20 05:53:40;;;;;;;0.40;0.40;;;8.50;99.90;;;;;;5038659;28;20024;-72
2021/05/20 05:56:06;;;;;;;0.20;0.20;;;8.70;99.90;;;;;;5044374;28;20026;-72
2021/05/20 05:58:32;;;;;;;1.85;0.88;;;8.60;99.90;;;;;;5035625;28;20025;-72
2021/05/20 06:00:58;;;;;;;0.30;0.30;;;8.70;99.90;;;;;;5040036;28;20029;-73
2021/05/20 06:03:25;;;;;;;0.20;0.20;;;8.60;99.90;;;;;;5036106;28;20034;-73
2021/05/20 06:05:51;;;;;;;0.30;0.30;;;8.70;99.90;;;;;;5043538;28;20021;-72
2021/05/20 06:08:17;;;;;;;0.60;0.60;;;8.90;99.90;;;;;;5041874;28;20032;-73
2021/05/20 06:10:43;;;;;;;0.35;0.35;;;9.00;99.90;;;;;;5043116;28;20025;-72
2021/05/20 06:13:09;;;;;;;0.75;0.75;;;8.80;99.90;;;;;;5027701;28;20032;-73
2021/05/20 06:15:35;;;;;;;1.67;0.70;;;8.80;99.90;;;;;;5039824;28;20026;-72
2021/05/20 06:18:01;;;;;;;0.20;0.20;;;8.70;99.90;;;;;;5040115;28;20032;-73
2021/05/20 06:20:27;;;;;;;1.08;0.45;;;8.80;99.90;;;;;;5041281;28;20413;-73
2021/05/20 06:22:54;;;;;;;0.20;0.20;;;9.00;99.90;;;;;;5037467;28;20389;-73
2021/05/20 06:25:20;;;;;;;1.90;0.30;;;9.10;99.90;;;;;;5043433;28;20137;-72
2021/05/20 06:27:46;;;;;;;0.20;0.20;;;8.90;99.90;;;;;;5041113;28;20075;-73
2021/05/20 06:30:12;;;;;;;0.60;0.60;;;8.90;99.90;;;;;;5042562;28;20033;-73
2021/05/20 06:32:38;;;;;;;0.85;0.85;;;9.00;99.90;;;;;;5030175;28;20021;-73
2021/05/20 06:35:04;;;;;;;0.20;0.20;;;9.00;99.90;;;;;;5038933;28;20385;-72
2021/05/20 06:37:31;;;;;;;0.20;0.20;;;9.00;99.90;;;;;;5037962;28;20021;-72
2021/05/20 06:39:57;;;;;;;0.20;0.20;;;9.00;99.90;;;;;;5036774;28;20397;-72
2021/05/20 06:42:23;;;;;;;0.17;0.17;;;8.90;99.90;;;;;;5035285;28;20021;-72
2021/05/20 06:44:49;;;;;;;0.20;0.20;;;8.90;99.90;;;;;;5043362;28;20036;-73
2021/05/20 06:47:15;;;;;;;0.77;0.43;;;9.00;99.90;;;;;;5039845;28;20032;-72
2021/05/20 06:49:41;;;;;;;1.63;1.25;;;9.10;99.90;;;;;;5037010;28;20400;-73
2021/05/20 06:52:07;;;;;;;0.47;0.47;;;9.00;99.90;;;;;;5044667;28;20040;-72
2021/05/20 06:54:32;;;;;;;0.20;0.20;;;9.10;99.90;;;;;;5048490;28;20348;-73
2021/05/20 06:57:03;;;;;;;0.20;0.20;;;9.10;99.90;;;;;;5042694;28;20511;-73
2021/05/20 07:02:13;;;;;;;0.65;0.52;;;9.40;99.90;;;;;;5051448;28;20021;-70
2021/05/20 07:04:39;;;;;;;0.15;0.15;;;9.30;99.90;;;;;;5053030;28;20071;-69
2021/05/20 07:07:05;;;;;;;0.60;0.60;;;9.40;99.90;;;;;;5053812;28;20027;-70
2021/05/20 07:09:35;;;;;;;0.30;0.30;;;9.50;99.90;;;;;;5053492;28;20451;-70
2021/05/20 07:12:02;;;;;;;0.30;0.30;;;9.60;99.90;;;;;;5053969;28;21026;-70
2021/05/20 07:14:27;;;;;;;0.20;0.20;;;9.30;99.90;;;;;;5053656;28;20021;-71
2021/05/20 07:16:53;;;;;;;0.20;0.20;;;9.30;99.90;;;;;;5036007;28;20535;-70
2021/05/20 07:19:19;;;;;;;6.40;0.60;;;9.30;99.90;;;;;;5053644;28;20028;-71
2021/05/20 07:21:45;;;;;;;0.30;0.30;;;9.50;99.90;;;;;;5052387;28;20029;-70
2021/05/20 07:24:11;;;;;;;0.22;0.22;;;9.50;99.90;;;;;;5053775;28;20528;-70
2021/05/20 07:26:37;;;;;;;0.20;0.20;;;9.50;99.90;;;;;;5032517;28;20029;-70
2021/05/20 07:29:04;;;;;;;0.20;0.20;;;9.50;99.90;;;;;;5053284;28;20036;-71
2021/05/20 07:31:30;;;;;;;0.50;0.50;;;9.80;99.90;;;;;;5052986;28;20047;-70
2021/05/20 07:33:57;;;;;;;0.20;0.20;;;9.90;99.90;;;;;;5050156;28;20041;-70
2021/05/20 07:36:22;;;;;;;0.20;0.20;;;9.90;99.90;;;;;;5052951;28;20025;-71
2021/05/20 07:38:49;;;;;;;0.40;0.40;;;10.20;99.90;;;;;;5052201;28;20070;-71
2021/05/20 07:41:15;;;;;;;0.30;0.30;;;10.30;99.90;;;;;;5033983;28;20032;-70
2021/05/20 07:43:42;;;;;;;0.45;0.40;;;10.20;99.90;;;;;;5052599;28;20074;-71
2021/05/20 07:46:09;;;;;;;0.30;0.30;;;10.30;99.90;;;;;;5035500;28;20168;-71
2021/05/20 07:48:35;;;;;;;0.95;0.50;;;10.50;99.90;;;;;;5035624;28;20028;-70
2021/05/20 07:51:02;;;;;;;0.20;0.20;;;10.40;99.90;;;;;;5035489;28;20036;-71
2021/05/20 07:53:28;;;;;;;0.30;0.30;;;10.40;99.90;;;;;;5053389;28;20027;-71
2021/05/20 07:55:54;;;;;;;0.30;0.30;;;10.80;99.90;;;;;;5052953;28;20266;-71
2021/05/20 07:58:23;;;;;;;0.28;0.28;;;10.90;99.90;;;;;;5035245;28;20017;-71
2021/05/20 08:00:49;;;;;;;0.38;0.38;;;10.50;99.90;;;;;;5052707;28;20115;-71
2021/05/20 08:08:47;;;;;;;0.20;0.20;;;10.10;99.90;;;;;;5049034;28;20392;-75
2021/05/20 08:11:15;;;;;;;0.20;0.20;;;10.10;99.90;;;;;;5020139;28;20029;-75
2021/05/20 08:13:42;;;;;;;0.20;0.20;;;10.10;99.90;;;;;;5034633;28;20167;-75
2021/05/20 08:16:08;;;;;;;0.85;0.55;;;10.30;99.90;;;;;;5051977;28;20021;-75
2021/05/20 08:18:34;;;;;;;0.63;0.52;;;10.90;99.90;;;;;;5036147;28;20503;-74
2021/05/20 08:21:02;;;;;;;0.20;0.20;;;11.00;99.90;;;;;;5052002;28;20459;-75
2021/05/20 08:23:28;;;;;;;0.45;0.45;;;11.20;99.90;;;;;;5032533;28;20540;-75
2021/05/20 08:25:54;;;;;;;0.28;0.28;;;11.30;99.90;;;;;;5032858;28;20028;-75
2021/05/20 08:28:19;;;;;;;0.22;0.22;;;10.90;99.90;;;;;;5050714;28;20405;-75
2021/05/20 08:30:46;;;;;;;0.38;0.35;;;11.20;98.60;;;;;;5051258;28;20025;-75
2021/05/20 08:33:11;;;;;;;0.32;0.30;;;11.10;97.20;;;;;;5033937;28;20017;-75
2021/05/20 08:35:37;;;;;;;0.20;0.20;;;10.90;99.90;;;;;;5033384;28;20029;-75
2021/05/20 08:38:04;;;;;;;0.20;0.20;;;11.00;97.40;;;;;;5051702;28;20373;-75
2021/05/20 08:40:30;;;;;;;0.20;0.20;;;11.00;96.20;;;;;;5051264;28;20029;-75
2021/05/20 08:42:57;;;;;;;1.35;0.50;;;11.20;95.20;;;;;;5033449;28;20095;-75
2021/05/20 08:45:25;;;;;;;0.20;0.20;;;11.00;93.00;;;;;;5033428;28;20429;-75
2021/05/20 08:47:53;;;;;;;0.20;0.20;;;11.10;91.90;;;;;;5051331;28;20021;-74
2021/05/20 08:50:22;;;;;;;0.40;0.40;;;11.40;90.90;;;;;;5050733;28;20033;-74
2021/05/20 08:52:48;;;;;;;3.60;0.32;;;11.60;90.70;;;;;;5034872;28;20029;-74
2021/05/20 08:55:17;;;;;;;0.20;0.20;;;11.60;86.50;;;;;;5032711;28;20025;-76
2021/05/20 08:57:44;;;;;;;0.80;0.55;;;11.60;88.10;;;;;;5051339;28;20040;-75
2021/05/20 09:00:18;;;;;;;0.22;0.22;;;11.60;90.90;;;;;;5051032;28;20037;-76
2021/05/20 09:02:44;;;;;;;0.40;0.40;;;11.30;91.70;;;;;;5033269;28;20021;-76
2021/05/20 09:05:11;;;;;;;0.40;0.40;;;11.30;92.00;;;;;;5016314;28;20029;-74
2021/05/20 09:07:40;;;;;;;0.52;0.52;;;11.20;92.80;;;;;;5047864;28;20033;-76
2021/05/20 09:10:16;;;;;;;0.20;0.20;;;11.00;93.10;;;;;;5031146;28;20036;-75
2021/05/20 09:12:42;;;;;;;0.30;0.30;;;11.10;98.80;;;;;;5030404;28;20055;-77
2021/05/20 09:15:17;;;;;;;0.30;0.30;;;11.00;99.90;;;;;;5050510;28;20032;-75
2021/05/20 09:17:44;;;;;;;0.30;0.30;;;10.80;99.90;;;;;;5047158;28;20457;-75
2021/05/20 09:20:10;;;;;;;2.90;0.30;;;10.60;99.90;;;;;;5049319;28;20127;-75
2021/05/20 09:22:37;;;;;;;0.30;0.30;;;10.40;99.90;;;;;;5032706;28;20032;-75
2021/05/20 09:25:04;;;;;;;0.20;0.20;;;10.10;99.90;;;;;;5032645;28;20064;-75
2021/05/20 09:27:34;;;;;;;0.20;0.20;;;9.90;99.90;;;;;;5050703;28;20029;-74
2021/05/20 09:30:10;;;;;;;0.20;0.20;;;9.80;99.90;;;;;;5048378;28;20021;-74
2021/05/20 09:32:37;;;;;;;0.10;0.10;;;9.70;99.90;;;;;;5032184;28;20029;-75
2021/05/20 09:35:04;;;;;;;0.20;0.20;;;9.70;99.90;;;;;;5050674;28;20021;-75
2021/05/20 09:37:30;;;;;;;0.20;0.20;;;9.70;99.90;;;;;;5050463;28;20316;-75
2021/05/20 09:40:04;;;;;;;0.20;0.20;;;10.10;99.90;;;;;;5014034;28;20029;-73
2021/05/20 09:42:31;;;;;;;0.40;0.40;;;11.00;99.90;;;;;;5032214;28;20550;-74
2021/05/20 09:45:11;;;;;;;0.20;0.20;;;11.90;99.90;;;;;;5031568;28;20021;-75
2021/05/20 09:47:36;;;;;;;0.20;0.20;;;12.50;99.90;;;;;;5049037;28;20021;-75
2021/05/20 09:50:14;;;;;;;0.20;0.20;;;13.20;99.90;;;;;;5048500;28;20035;-75
2021/05/20 09:52:40;;;;;;;0.20;0.20;;;13.70;99.90;;;;;;5050212;28;20035;-75
2021/05/20 09:55:42;;;;;;;0.20;0.20;;;13.30;94.60;;;;;;5032759;28;20510;-75
2021/05/20 09:58:11;;;;;;;0.20;0.20;;;13.60;99.90;;;;;;5037765;28;20124;-76
2021/05/20 10:00:39;;;;;;;0.20;0.20;;;13.60;96.90;;;;;;5050753;28;20084;-75
2021/05/20 10:03:07;;;;;;;2.75;0.20;;;13.50;94.10;;;;;;5050393;28;20028;-76
2021/05/20 10:05:33;;;;;;;0.15;0.15;;;12.60;91.60;;;;;;5016230;28;20036;-75
2021/05/20 10:08:01;;;;;;;0.25;0.25;;;12.40;93.00;;;;;;5050202;28;20017;-75
2021/05/20 10:10:27;;;;;;;0.22;0.22;;;12.20;92.40;;;;;;5030879;28;20082;-76
2021/05/20 10:12:54;;;;;;;2.53;0.35;;;12.10;95.80;;;;;;5018842;28;20028;-76
2021/05/20 10:15:23;;;;;;;0.10;0.10;;;12.40;91.20;;;;;;5030436;28;20051;-75
2021/05/20 10:17:50;;;;;;;0.20;0.20;;;12.80;90.40;;;;;;5050446;28;20079;-75
2021/05/20 10:20:20;;;;;;;0.17;0.17;;;13.10;84.70;;;;;;5017056;28;20029;-75
2021/05/20 10:22:46;;;;;;;0.10;0.10;;;13.30;86.80;;;;;;5035494;28;20022;-76
2021/05/20 10:25:13;;;;;;;0.98;0.32;;;14.10;82.10;;;;;;5051383;28;20033;-75
2021/05/20 10:27:40;;;;;;;0.20;0.20;;;14.00;79.20;;;;;;5051929;28;20095;-75
2021/05/20 10:30:09;;;;;;;0.15;0.15;;;14.70;79.20;;;;;;5053915;28;20021;-75
2021/05/20 10:32:37;;;;;;;0.10;0.10;;;15.00;78.30;;;;;;5053741;28;20029;-75
2021/05/20 10:35:02;;;;;;;0.10;0.10;;;15.00;77.40;;;;;;5036046;28;20048;-75
2021/05/20 10:37:38;;;;;;;0.40;0.40;;;15.40;74.00;;;;;;5053597;28;20021;-75
2021/05/20 10:40:09;;;;;;;0.17;0.17;;;15.50;72.60;;;;;;5050796;28;20031;-75
2021/05/20 10:42:37;;;;;;;0.50;0.40;;;14.90;74.60;;;;;;5018484;28;20028;-75
2021/05/20 10:45:20;;;;;;;0.10;0.10;;;14.50;75.20;;;;;;5053877;28;20044;-76
2021/05/20 10:48:04;;;;;;;0.22;0.22;;;14.10;76.20;;;;;;5050156;28;20024;-75
2021/05/20 10:50:48;;;;;;;0.30;0.30;;;13.30;80.00;;;;;;5018700;28;20455;-75
2021/05/20 10:53:39;;;;;;;0.20;0.20;;;13.10;83.10;;;;;;5053148;28;20491;-75
2021/05/20 10:56:25;;;;;;;0.10;0.10;;;13.50;81.70;;;;;;5051005;28;20028;-75
2021/05/20 10:58:52;;;;;;;0.15;0.15;;;13.80;80.80;;;;;;5048648;28;20028;-75
2021/05/20 11:01:20;;;;;;;0.30;0.30;;;14.80;82.70;;;;;;5053266;28;20534;-75
2021/05/20 11:03:46;;;;;;;0.30;0.30;;;15.40;75.20;;;;;;5035780;28;20423;-75
2021/05/20 11:06:12;;;;;;;0.20;0.20;;;16.00;72.10;;;;;;5035280;28;20129;-76
2021/05/20 11:08:38;;;;;;;0.20;0.20;;;15.50;70.00;;;;;;5033892;28;20476;-76
2021/05/20 11:11:07;;;;;;;0.47;0.47;;;15.20;74.40;;;;;;5053397;28;20029;-76
2021/05/20 11:13:44;;;;;;;0.10;0.10;;;15.00;75.20;;;;;;5018844;28;20041;-75
2021/05/20 11:16:18;;;;;;;0.20;0.20;;;15.60;74.60;;;;;;5035177;28;20083;-75
2021/05/20 11:18:49;;;;;;;0.10;0.10;;;15.70;71.50;;;;;;5018822;28;20492;-76
2021/05/20 11:21:16;;;;;;;0.20;0.20;;;16.30;71.20;;;;;;5053304;28;20029;-75
2021/05/20 11:23:42;;;;;;;0.40;0.40;;;17.00;67.90;;;;;;5053200;28;20017;-76
2021/05/20 11:26:10;;;;;;;0.20;0.20;;;16.60;66.10;;;;;;5052985;28;20451;-75
2021/05/20 11:28:42;;;;;;;1.33;0.35;;;16.10;67.30;;;;;;5052550;28;20021;-75
2021/05/20 11:31:08;;;;;;;;;;;15.90;69.50;;;;;;5053314;28;20043;-75
2021/05/20 11:33:44;;;;;;;0.10;0.10;;;15.60;65.40;;;;;;5047116;28;19935;-76
2021/05/20 11:36:12;;;;;;;0.10;0.10;;;16.30;66.50;;;;;;5022569;28;20404;-76
2021/05/20 11:38:50;;;;;;;0.10;0.10;;;16.00;65.30;;;;;;5051887;28;20024;-76
2021/05/20 11:41:17;;;;;;;0.20;0.20;;;16.60;65.00;;;;;;5052575;28;20033;-75
2021/05/20 11:43:43;;;;;;;0.15;0.15;;;16.40;63.20;;;;;;5032207;28;20094;-75
2021/05/20 11:46:20;;;;;;;0.10;0.10;;;16.30;65.60;;;;;;5034890;28;20476;-75
2021/05/20 11:48:59;;;;;;;0.20;0.20;;;15.60;64.80;;;;;;5050823;28;20020;-75
2021/05/20 11:51:38;;;;;;;0.15;0.15;;;15.10;65.50;;;;;;5047309;28;20076;-75
2021/05/20 11:54:08;;;;;;;0.20;0.20;;;15.00;68.00;;;;;;5031471;28;20021;-75
2021/05/20 11:56:48;;;;;;;0.20;0.20;;;15.10;68.20;;;;;;5024677;28;20021;-75
2021/05/20 11:59:14;;;;;;;0.25;0.25;;;15.40;66.10;;;;;;5048743;28;20051;-75
2021/05/20 12:01:42;;;;;;;0.10;0.10;;;15.60;63.70;;;;;;5033326;28;20063;-74
2021/05/20 12:04:09;;;;;;;0.17;0.17;;;15.50;62.80;;;;;;5050644;28;20142;-75
2021/05/20 12:06:35;;;;;;;1.08;0.30;;;16.10;64.80;;;;;;5034149;28;20028;-75
2021/05/20 12:09:04;;;;;;;0.10;0.10;;;16.50;62.80;;;;;;5034010;28;20111;-75
2021/05/20 12:11:29;;;;;;;0.13;0.13;;;16.60;61.60;;;;;;5051853;28;20031;-74
2021/05/20 12:13:55;;;;;;;0.25;0.25;;;16.30;63.00;;;;;;5052089;28;20016;-75
2021/05/20 12:16:32;;;;;;;0.10;0.10;;;16.20;61.50;;;;;;5033784;28;20037;-75
2021/05/20 12:18:59;;;;;;;0.17;0.17;;;15.70;59.60;;;;;;5052040;28;20043;-74
2021/05/20 12:21:25;;;;;;;0.10;0.10;;;15.50;62.20;;;;;;5052059;28;20120;-74
2021/05/20 12:23:58;;;;;;;0.20;0.20;;;15.50;61.70;;;;;;5051925;28;20104;-74
2021/05/20 12:26:28;;;;;;;0.20;0.20;;;15.30;60.10;;;;;;5033842;28;20021;-74
2021/05/20 12:28:55;;;;;;;0.35;0.35;;;15.10;61.20;;;;;;5030149;28;20139;-74
2021/05/20 12:31:21;;;;;;;0.38;0.38;;;15.70;61.30;;;;;;5033814;28;20394;-74
2021/05/20 12:33:49;;;;;;;0.10;0.10;;;15.80;59.00;;;;;;5033771;28;20021;-75
2021/05/20 12:36:35;;;;;;;0.20;0.20;;;16.00;59.10;;;;;;5051758;28;20028;-74
2021/05/20 12:39:02;;;;;;;0.10;0.10;;;16.00;57.70;;;;;;5050463;28;20013;-74
2021/05/20 12:41:37;;;;;;;0.10;0.10;;;15.70;58.60;;;;;;5033479;28;20025;-74
2021/05/20 12:44:17;;;;;;;0.10;0.10;;;15.80;59.60;;;;;;5051381;28;20052;-75
2021/05/20 12:46:43;;;;;;;0.10;0.10;;;16.10;58.40;;;;;;5033823;28;20113;-74
2021/05/20 12:49:09;;;;;;;0.40;0.40;;;16.00;59.90;;;;;;5026586;28;20057;-75
2021/05/20 12:51:35;;;;;;;0.13;0.13;;;15.80;60.70;;;;;;5036615;28;20027;-74
2021/05/20 12:54:07;;;;;;;0.10;0.10;;;15.50;64.00;;;;;;5050898;28;20060;-74
2021/05/20 12:56:41;;;;;;;0.50;0.50;;;14.90;64.90;;;;;;5051387;28;20514;-74
2021/05/20 13:01:38;;;;;;;0.10;0.10;;;15.10;61.50;;;;;;5088570;28;20109;-74
2021/05/20 13:04:27;;;;;;;0.20;0.20;;;15.50;61.10;;;;;;5091491;28;20055;-74
2021/05/20 13:07:07;;;;;;;0.47;0.47;;;15.90;60.60;;;;;;5088298;28;20399;-74